sensor_id;sensor_type;location;lat;lon;timestamp;pressure;altitude;pressure_sealevel;temperature
8227;BMP180;4154;48.810;9.012;2023-06-14T00:00:15;96677.00;;;15.70
8227;BMP180;4154;48.810;9.012;2023-06-14T00:02:41;96662.00;;;15.70
8227;BMP180;4154;48.810;9.012;2023-06-14T00:05:07;96669.00;;;15.60
8227;BMP180;4154;48.810;9.012;2023-06-14T00:07:41;96661.00;;;15.60
8227;BMP180;4154;48.810;9.012;2023-06-14T00:10:11;96659.00;;;15.60
8227;BMP180;4154;48.810;9.012;2023-06-14T00:12:39;96657.00;;;15.50
8227;BMP180;4154;48.810;9.012;2023-06-14T00:15:05;96655.00;;;15.50
8227;BMP180;4154;48.810;9.012;2023-06-14T00:17:31;96656.00;;;15.50
8227;BMP180;4154;48.810;9.012;2023-06-14T00:19:58;96645.00;;;15.40
8227;BMP180;4154;48.810;9.012;2023-06-14T00:22:24;96653.00;;;15.40
8227;BMP180;4154;48.810;9.012;2023-06-14T00:24:51;96656.00;;;15.40
8227;BMP180;4154;48.810;9.012;2023-06-14T00:27:17;96654.00;;;15.40
8227;BMP180;4154;48.810;9.012;2023-06-14T00:29:43;96656.00;;;15.30
8227;BMP180;4154;48.810;9.012;2023-06-14T00:32:08;96662.00;;;15.30
8227;BMP180;4154;48.810;9.012;2023-06-14T00:34:34;96658.00;;;15.30
8227;BMP180;4154;48.810;9.012;2023-06-14T00:37:00;96664.00;;;15.30
8227;BMP180;4154;48.810;9.012;2023-06-14T00:39:27;96667.00;;;15.20
8227;BMP180;4154;48.810;9.012;2023-06-14T00:41:52;96666.00;;;15.10
8227;BMP180;4154;48.810;9.012;2023-06-14T00:44:19;96669.00;;;15.10
8227;BMP180;4154;48.810;9.012;2023-06-14T00:46:45;96667.00;;;15.00
8227;BMP180;4154;48.810;9.012;2023-06-14T00:49:14;96667.00;;;15.00
8227;BMP180;4154;48.810;9.012;2023-06-14T00:51:43;96668.00;;;14.90
8227;BMP180;4154;48.810;9.012;2023-06-14T00:54:09;96669.00;;;14.90
8227;BMP180;4154;48.810;9.012;2023-06-14T00:56:36;96659.00;;;14.90
8227;BMP180;4154;48.810;9.012;2023-06-14T00:59:03;96657.00;;;14.80
8227;BMP180;4154;48.810;9.012;2023-06-14T01:01:30;96661.00;;;14.80
8227;BMP180;4154;48.810;9.012;2023-06-14T01:04:01;96660.00;;;14.80
8227;BMP180;4154;48.810;9.012;2023-06-14T01:06:45;96663.00;;;14.70
8227;BMP180;4154;48.810;9.012;2023-06-14T01:15:15;96655.00;;;14.60
8227;BMP180;4154;48.810;9.012;2023-06-14T01:17:44;96665.00;;;14.60
8227;BMP180;4154;48.810;9.012;2023-06-14T01:20:15;96657.00;;;14.50
8227;BMP180;4154;48.810;9.012;2023-06-14T01:22:55;96653.00;;;14.40
8227;BMP180;4154;48.810;9.012;2023-06-14T01:25:22;96665.00;;;14.40
8227;BMP180;4154;48.810;9.012;2023-06-14T01:28:02;96661.00;;;14.40
8227;BMP180;4154;48.810;9.012;2023-06-14T01:30:30;96669.00;;;14.40
8227;BMP180;4154;48.810;9.012;2023-06-14T01:32:57;96663.00;;;14.40
8227;BMP180;4154;48.810;9.012;2023-06-14T01:35:24;96661.00;;;14.40
8227;BMP180;4154;48.810;9.012;2023-06-14T01:37:52;96669.00;;;14.40
8227;BMP180;4154;48.810;9.012;2023-06-14T01:40:20;96663.00;;;14.30
8227;BMP180;4154;48.810;9.012;2023-06-14T01:42:49;96662.00;;;14.30
8227;BMP180;4154;48.810;9.012;2023-06-14T01:45:16;96661.00;;;14.30
8227;BMP180;4154;48.810;9.012;2023-06-14T01:47:44;96665.00;;;14.20
8227;BMP180;4154;48.810;9.012;2023-06-14T01:50:11;96657.00;;;14.20
8227;BMP180;4154;48.810;9.012;2023-06-14T01:52:37;96670.00;;;14.20
8227;BMP180;4154;48.810;9.012;2023-06-14T01:55:05;96662.00;;;14.10
8227;BMP180;4154;48.810;9.012;2023-06-14T01:57:31;96664.00;;;14.00
8227;BMP180;4154;48.810;9.012;2023-06-14T01:59:57;96667.00;;;14.00
8227;BMP180;4154;48.810;9.012;2023-06-14T02:02:23;96666.00;;;13.90
8227;BMP180;4154;48.810;9.012;2023-06-14T02:04:49;96656.00;;;13.90
8227;BMP180;4154;48.810;9.012;2023-06-14T02:07:15;96660.00;;;13.90
8227;BMP180;4154;48.810;9.012;2023-06-14T02:09:41;96661.00;;;13.90
8227;BMP180;4154;48.810;9.012;2023-06-14T02:12:08;96659.00;;;13.90
8227;BMP180;4154;48.810;9.012;2023-06-14T02:14:33;96660.00;;;13.80
8227;BMP180;4154;48.810;9.012;2023-06-14T02:17:00;96664.00;;;13.80
8227;BMP180;4154;48.810;9.012;2023-06-14T02:19:27;96667.00;;;13.80
8227;BMP180;4154;48.810;9.012;2023-06-14T02:21:52;96661.00;;;13.80
8227;BMP180;4154;48.810;9.012;2023-06-14T02:24:18;96660.00;;;13.70
8227;BMP180;4154;48.810;9.012;2023-06-14T02:26:44;96664.00;;;13.70
8227;BMP180;4154;48.810;9.012;2023-06-14T02:29:10;96667.00;;;13.60
8227;BMP180;4154;48.810;9.012;2023-06-14T02:31:38;96667.00;;;13.60
8227;BMP180;4154;48.810;9.012;2023-06-14T02:34:04;96666.00;;;13.50
8227;BMP180;4154;48.810;9.012;2023-06-14T02:36:29;96672.00;;;13.50
8227;BMP180;4154;48.810;9.012;2023-06-14T02:38:56;96665.00;;;13.50
8227;BMP180;4154;48.810;9.012;2023-06-14T02:41:25;96658.00;;;13.50
8227;BMP180;4154;48.810;9.012;2023-06-14T02:43:53;96658.00;;;13.40
8227;BMP180;4154;48.810;9.012;2023-06-14T02:46:19;96660.00;;;13.40
8227;BMP180;4154;48.810;9.012;2023-06-14T02:48:45;96670.00;;;13.40
8227;BMP180;4154;48.810;9.012;2023-06-14T02:51:11;96669.00;;;13.30
8227;BMP180;4154;48.810;9.012;2023-06-14T02:53:38;96674.00;;;13.30
8227;BMP180;4154;48.810;9.012;2023-06-14T02:56:04;96668.00;;;13.20
8227;BMP180;4154;48.810;9.012;2023-06-14T02:58:30;96663.00;;;13.20
8227;BMP180;4154;48.810;9.012;2023-06-14T03:00:56;96664.00;;;13.20
8227;BMP180;4154;48.810;9.012;2023-06-14T03:03:22;96667.00;;;13.10
8227;BMP180;4154;48.810;9.012;2023-06-14T03:05:50;96662.00;;;13.10
8227;BMP180;4154;48.810;9.012;2023-06-14T03:08:17;96667.00;;;13.10
8227;BMP180;4154;48.810;9.012;2023-06-14T03:10:46;96671.00;;;13.10
8227;BMP180;4154;48.810;9.012;2023-06-14T03:13:13;96664.00;;;13.00
8227;BMP180;4154;48.810;9.012;2023-06-14T03:15:38;96666.00;;;13.10
8227;BMP180;4154;48.810;9.012;2023-06-14T03:18:08;96674.00;;;13.10
8227;BMP180;4154;48.810;9.012;2023-06-14T03:20:38;96666.00;;;13.10
8227;BMP180;4154;48.810;9.012;2023-06-14T03:23:04;96665.00;;;13.00
8227;BMP180;4154;48.810;9.012;2023-06-14T03:25:31;96673.00;;;13.00
8227;BMP180;4154;48.810;9.012;2023-06-14T03:27:58;96674.00;;;13.00
8227;BMP180;4154;48.810;9.012;2023-06-14T03:30:24;96681.00;;;12.90
8227;BMP180;4154;48.810;9.012;2023-06-14T03:32:49;96677.00;;;12.80
8227;BMP180;4154;48.810;9.012;2023-06-14T03:35:19;96684.00;;;12.80
8227;BMP180;4154;48.810;9.012;2023-06-14T03:37:46;96684.00;;;12.80
8227;BMP180;4154;48.810;9.012;2023-06-14T03:40:15;96688.00;;;12.90
8227;BMP180;4154;48.810;9.012;2023-06-14T03:42:41;96692.00;;;12.80
8227;BMP180;4154;48.810;9.012;2023-06-14T03:45:07;96696.00;;;12.80
8227;BMP180;4154;48.810;9.012;2023-06-14T03:47:34;96703.00;;;12.70
8227;BMP180;4154;48.810;9.012;2023-06-14T03:50:00;96701.00;;;12.70
8227;BMP180;4154;48.810;9.012;2023-06-14T03:52:27;96701.00;;;12.70
8227;BMP180;4154;48.810;9.012;2023-06-14T03:54:52;96705.00;;;12.80
8227;BMP180;4154;48.810;9.012;2023-06-14T03:57:19;96705.00;;;12.70
8227;BMP180;4154;48.810;9.012;2023-06-14T03:59:45;96708.00;;;12.70
8227;BMP180;4154;48.810;9.012;2023-06-14T04:02:12;96712.00;;;12.70
8227;BMP180;4154;48.810;9.012;2023-06-14T04:04:42;96710.00;;;12.70
8227;BMP180;4154;48.810;9.012;2023-06-14T04:07:11;96713.00;;;12.70
8227;BMP180;4154;48.810;9.012;2023-06-14T04:09:38;96710.00;;;12.70
8227;BMP180;4154;48.810;9.012;2023-06-14T04:12:05;96719.00;;;12.70
8227;BMP180;4154;48.810;9.012;2023-06-14T04:14:31;96718.00;;;12.70
8227;BMP180;4154;48.810;9.012;2023-06-14T04:16:58;96718.00;;;12.80
8227;BMP180;4154;48.810;9.012;2023-06-14T04:19:25;96718.00;;;12.80
8227;BMP180;4154;48.810;9.012;2023-06-14T04:21:50;96733.00;;;12.80
8227;BMP180;4154;48.810;9.012;2023-06-14T04:24:16;96729.00;;;12.80
8227;BMP180;4154;48.810;9.012;2023-06-14T04:26:43;96735.00;;;12.80
8227;BMP180;4154;48.810;9.012;2023-06-14T04:29:11;96734.00;;;12.80
8227;BMP180;4154;48.810;9.012;2023-06-14T04:31:45;96734.00;;;12.80
8227;BMP180;4154;48.810;9.012;2023-06-14T04:34:12;96730.00;;;12.80
8227;BMP180;4154;48.810;9.012;2023-06-14T04:36:42;96730.00;;;12.80
8227;BMP180;4154;48.810;9.012;2023-06-14T04:39:16;96731.00;;;12.80
8227;BMP180;4154;48.810;9.012;2023-06-14T04:41:43;96742.00;;;12.80
8227;BMP180;4154;48.810;9.012;2023-06-14T04:44:10;96734.00;;;12.80
8227;BMP180;4154;48.810;9.012;2023-06-14T04:46:36;96733.00;;;12.90
8227;BMP180;4154;48.810;9.012;2023-06-14T04:49:21;96732.00;;;12.90
8227;BMP180;4154;48.810;9.012;2023-06-14T04:51:48;96739.00;;;13.00
8227;BMP180;4154;48.810;9.012;2023-06-14T04:54:23;96740.00;;;13.00
8227;BMP180;4154;48.810;9.012;2023-06-14T04:56:51;96754.00;;;13.10
8227;BMP180;4154;48.810;9.012;2023-06-14T04:59:17;96747.00;;;13.10
8227;BMP180;4154;48.810;9.012;2023-06-14T05:01:43;96748.00;;;13.10
8227;BMP180;4154;48.810;9.012;2023-06-14T05:04:15;96751.00;;;13.20
8227;BMP180;4154;48.810;9.012;2023-06-14T05:06:43;96754.00;;;13.20
8227;BMP180;4154;48.810;9.012;2023-06-14T05:09:14;96757.00;;;13.20
8227;BMP180;4154;48.810;9.012;2023-06-14T05:11:41;96764.00;;;13.30
8227;BMP180;4154;48.810;9.012;2023-06-14T05:14:10;96761.00;;;13.40
8227;BMP180;4154;48.810;9.012;2023-06-14T05:16:36;96763.00;;;13.50
8227;BMP180;4154;48.810;9.012;2023-06-14T05:19:03;96771.00;;;13.60
8227;BMP180;4154;48.810;9.012;2023-06-14T05:21:30;96768.00;;;13.80
8227;BMP180;4154;48.810;9.012;2023-06-14T05:23:57;96766.00;;;13.90
8227;BMP180;4154;48.810;9.012;2023-06-14T05:26:23;96761.00;;;14.00
8227;BMP180;4154;48.810;9.012;2023-06-14T05:28:50;96772.00;;;14.10
8227;BMP180;4154;48.810;9.012;2023-06-14T05:31:18;96780.00;;;14.20
8227;BMP180;4154;48.810;9.012;2023-06-14T05:33:44;96766.00;;;14.40
8227;BMP180;4154;48.810;9.012;2023-06-14T05:36:09;96768.00;;;14.50
8227;BMP180;4154;48.810;9.012;2023-06-14T05:38:35;96777.00;;;14.50
8227;BMP180;4154;48.810;9.012;2023-06-14T05:41:01;96778.00;;;14.60
8227;BMP180;4154;48.810;9.012;2023-06-14T05:43:27;96783.00;;;14.70
8227;BMP180;4154;48.810;9.012;2023-06-14T05:45:53;96785.00;;;14.70
8227;BMP180;4154;48.810;9.012;2023-06-14T05:48:19;96779.00;;;14.90
8227;BMP180;4154;48.810;9.012;2023-06-14T05:50:45;96782.00;;;14.90
8227;BMP180;4154;48.810;9.012;2023-06-14T05:53:11;96772.00;;;14.90
8227;BMP180;4154;48.810;9.012;2023-06-14T05:55:37;96780.00;;;15.00
8227;BMP180;4154;48.810;9.012;2023-06-14T05:58:03;96777.00;;;15.00
8227;BMP180;4154;48.810;9.012;2023-06-14T06:00:28;96776.00;;;15.00
8227;BMP180;4154;48.810;9.012;2023-06-14T06:02:54;96782.00;;;15.10
8227;BMP180;4154;48.810;9.012;2023-06-14T06:05:23;96774.00;;;15.20
8227;BMP180;4154;48.810;9.012;2023-06-14T06:07:49;96782.00;;;15.10
8227;BMP180;4154;48.810;9.012;2023-06-14T06:10:15;96781.00;;;15.10
8227;BMP180;4154;48.810;9.012;2023-06-14T06:12:44;96783.00;;;15.20
8227;BMP180;4154;48.810;9.012;2023-06-14T06:15:10;96795.00;;;15.30
8227;BMP180;4154;48.810;9.012;2023-06-14T06:17:39;96788.00;;;15.30
8227;BMP180;4154;48.810;9.012;2023-06-14T06:20:06;96785.00;;;15.30
8227;BMP180;4154;48.810;9.012;2023-06-14T06:22:34;96792.00;;;15.40
8227;BMP180;4154;48.810;9.012;2023-06-14T06:25:00;96791.00;;;15.40
8227;BMP180;4154;48.810;9.012;2023-06-14T06:27:26;96802.00;;;15.50
8227;BMP180;4154;48.810;9.012;2023-06-14T06:29:51;96809.00;;;15.60
8227;BMP180;4154;48.810;9.012;2023-06-14T06:32:17;96799.00;;;15.70
8227;BMP180;4154;48.810;9.012;2023-06-14T06:34:43;96784.00;;;15.70
8227;BMP180;4154;48.810;9.012;2023-06-14T06:37:09;96805.00;;;15.80
8227;BMP180;4154;48.810;9.012;2023-06-14T06:39:35;96797.00;;;16.00
8227;BMP180;4154;48.810;9.012;2023-06-14T06:42:01;96803.00;;;16.00
8227;BMP180;4154;48.810;9.012;2023-06-14T06:44:26;96802.00;;;16.00
8227;BMP180;4154;48.810;9.012;2023-06-14T06:46:52;96807.00;;;16.00
8227;BMP180;4154;48.810;9.012;2023-06-14T06:49:18;96807.00;;;16.20
8227;BMP180;4154;48.810;9.012;2023-06-14T06:51:59;96816.00;;;16.30
8227;BMP180;4154;48.810;9.012;2023-06-14T06:54:25;96817.00;;;16.30
8227;BMP180;4154;48.810;9.012;2023-06-14T06:56:51;96817.00;;;16.40
8227;BMP180;4154;48.810;9.012;2023-06-14T06:59:17;96806.00;;;16.40
8227;BMP180;4154;48.810;9.012;2023-06-14T07:01:43;96819.00;;;16.40
8227;BMP180;4154;48.810;9.012;2023-06-14T07:04:09;96832.00;;;16.50
8227;BMP180;4154;48.810;9.012;2023-06-14T07:06:35;96825.00;;;16.60
8227;BMP180;4154;48.810;9.012;2023-06-14T07:09:01;96825.00;;;16.60
8227;BMP180;4154;48.810;9.012;2023-06-14T07:11:27;96833.00;;;16.60
8227;BMP180;4154;48.810;9.012;2023-06-14T07:13:53;96840.00;;;16.80
8227;BMP180;4154;48.810;9.012;2023-06-14T07:16:19;96831.00;;;16.80
8227;BMP180;4154;48.810;9.012;2023-06-14T07:18:46;96839.00;;;16.90
8227;BMP180;4154;48.810;9.012;2023-06-14T07:21:12;96840.00;;;16.90
8227;BMP180;4154;48.810;9.012;2023-06-14T07:23:38;96842.00;;;17.00
8227;BMP180;4154;48.810;9.012;2023-06-14T07:26:04;96851.00;;;17.10
8227;BMP180;4154;48.810;9.012;2023-06-14T07:28:30;96860.00;;;17.10
8227;BMP180;4154;48.810;9.012;2023-06-14T07:30:56;96852.00;;;17.30
8227;BMP180;4154;48.810;9.012;2023-06-14T07:33:23;96854.00;;;17.40
8227;BMP180;4154;48.810;9.012;2023-06-14T07:35:49;96858.00;;;17.40
8227;BMP180;4154;48.810;9.012;2023-06-14T07:38:15;96867.00;;;17.50
8227;BMP180;4154;48.810;9.012;2023-06-14T07:40:41;96860.00;;;17.60
8227;BMP180;4154;48.810;9.012;2023-06-14T07:43:07;96870.00;;;17.60
8227;BMP180;4154;48.810;9.012;2023-06-14T07:45:33;96858.00;;;17.50
8227;BMP180;4154;48.810;9.012;2023-06-14T07:47:59;96865.00;;;17.50
8227;BMP180;4154;48.810;9.012;2023-06-14T07:50:26;96866.00;;;17.70
8227;BMP180;4154;48.810;9.012;2023-06-14T07:52:52;96871.00;;;17.80
8227;BMP180;4154;48.810;9.012;2023-06-14T07:55:18;96868.00;;;17.90
8227;BMP180;4154;48.810;9.012;2023-06-14T07:57:44;96859.00;;;18.00
8227;BMP180;4154;48.810;9.012;2023-06-14T08:00:10;96869.00;;;18.10
8227;BMP180;4154;48.810;9.012;2023-06-14T08:02:41;96867.00;;;18.00
8227;BMP180;4154;48.810;9.012;2023-06-14T08:05:09;96863.00;;;18.00
8227;BMP180;4154;48.810;9.012;2023-06-14T08:07:35;96855.00;;;18.10
8227;BMP180;4154;48.810;9.012;2023-06-14T08:10:01;96871.00;;;18.10
8227;BMP180;4154;48.810;9.012;2023-06-14T08:12:27;96874.00;;;18.30
8227;BMP180;4154;48.810;9.012;2023-06-14T08:14:53;96874.00;;;18.30
8227;BMP180;4154;48.810;9.012;2023-06-14T08:17:19;96866.00;;;18.50
8227;BMP180;4154;48.810;9.012;2023-06-14T08:19:46;96872.00;;;18.50
8227;BMP180;4154;48.810;9.012;2023-06-14T08:22:12;96867.00;;;18.60
8227;BMP180;4154;48.810;9.012;2023-06-14T08:24:38;96871.00;;;18.70
8227;BMP180;4154;48.810;9.012;2023-06-14T08:27:06;96871.00;;;18.70
8227;BMP180;4154;48.810;9.012;2023-06-14T08:29:32;96881.00;;;18.80
8227;BMP180;4154;48.810;9.012;2023-06-14T08:31:59;96884.00;;;18.90
8227;BMP180;4154;48.810;9.012;2023-06-14T08:34:25;96882.00;;;19.00
8227;BMP180;4154;48.810;9.012;2023-06-14T08:36:51;96881.00;;;18.90
8227;BMP180;4154;48.810;9.012;2023-06-14T08:39:17;96876.00;;;18.90
8227;BMP180;4154;48.810;9.012;2023-06-14T08:41:47;96885.00;;;19.10
8227;BMP180;4154;48.810;9.012;2023-06-14T08:44:17;96877.00;;;19.10
8227;BMP180;4154;48.810;9.012;2023-06-14T08:46:43;96880.00;;;19.10
8227;BMP180;4154;48.810;9.012;2023-06-14T08:49:12;96889.00;;;19.30
8227;BMP180;4154;48.810;9.012;2023-06-14T08:51:38;96883.00;;;19.40
8227;BMP180;4154;48.810;9.012;2023-06-14T08:54:06;96890.00;;;19.40
8227;BMP180;4154;48.810;9.012;2023-06-14T08:56:32;96885.00;;;19.40
8227;BMP180;4154;48.810;9.012;2023-06-14T08:59:00;96889.00;;;19.50
8227;BMP180;4154;48.810;9.012;2023-06-14T09:01:36;96896.00;;;19.50
8227;BMP180;4154;48.810;9.012;2023-06-14T09:04:03;96885.00;;;19.60
8227;BMP180;4154;48.810;9.012;2023-06-14T09:06:31;96879.00;;;19.60
8227;BMP180;4154;48.810;9.012;2023-06-14T09:08:58;96890.00;;;19.70
8227;BMP180;4154;48.810;9.012;2023-06-14T09:11:25;96888.00;;;19.90
8227;BMP180;4154;48.810;9.012;2023-06-14T09:13:52;96891.00;;;20.10
8227;BMP180;4154;48.810;9.012;2023-06-14T09:16:18;96886.00;;;20.10
8227;BMP180;4154;48.810;9.012;2023-06-14T09:18:46;96887.00;;;20.20
8227;BMP180;4154;48.810;9.012;2023-06-14T09:21:16;96891.00;;;20.30
8227;BMP180;4154;48.810;9.012;2023-06-14T09:23:45;96891.00;;;20.30
8227;BMP180;4154;48.810;9.012;2023-06-14T09:26:17;96897.00;;;20.50
8227;BMP180;4154;48.810;9.012;2023-06-14T09:28:46;96887.00;;;20.50
8227;BMP180;4154;48.810;9.012;2023-06-14T09:31:18;96897.00;;;20.70
8227;BMP180;4154;48.810;9.012;2023-06-14T09:33:47;96895.00;;;20.70
8227;BMP180;4154;48.810;9.012;2023-06-14T09:36:21;96900.00;;;20.80
8227;BMP180;4154;48.810;9.012;2023-06-14T09:38:54;96900.00;;;20.70
8227;BMP180;4154;48.810;9.012;2023-06-14T09:41:30;96903.00;;;20.70
8227;BMP180;4154;48.810;9.012;2023-06-14T09:43:57;96909.00;;;20.80
8227;BMP180;4154;48.810;9.012;2023-06-14T09:46:27;96903.00;;;20.90
8227;BMP180;4154;48.810;9.012;2023-06-14T09:48:53;96897.00;;;20.90
8227;BMP180;4154;48.810;9.012;2023-06-14T09:51:19;96894.00;;;20.90
8227;BMP180;4154;48.810;9.012;2023-06-14T09:53:51;96893.00;;;21.00
8227;BMP180;4154;48.810;9.012;2023-06-14T09:56:40;96899.00;;;21.10
8227;BMP180;4154;48.810;9.012;2023-06-14T09:59:08;96894.00;;;21.00
8227;BMP180;4154;48.810;9.012;2023-06-14T10:01:42;96893.00;;;21.30
8227;BMP180;4154;48.810;9.012;2023-06-14T10:04:09;96900.00;;;21.40
8227;BMP180;4154;48.810;9.012;2023-06-14T10:06:45;96887.00;;;21.20
8227;BMP180;4154;48.810;9.012;2023-06-14T10:09:12;96894.00;;;21.40
8227;BMP180;4154;48.810;9.012;2023-06-14T10:11:38;96888.00;;;21.50
8227;BMP180;4154;48.810;9.012;2023-06-14T10:14:11;96893.00;;;21.60
8227;BMP180;4154;48.810;9.012;2023-06-14T10:16:50;96892.00;;;21.50
8227;BMP180;4154;48.810;9.012;2023-06-14T10:19:29;96901.00;;;21.60
8227;BMP180;4154;48.810;9.012;2023-06-14T10:22:10;96890.00;;;21.50
8227;BMP180;4154;48.810;9.012;2023-06-14T10:24:44;96887.00;;;21.60
8227;BMP180;4154;48.810;9.012;2023-06-14T10:27:13;96876.00;;;21.50
8227;BMP180;4154;48.810;9.012;2023-06-14T10:32:22;96873.00;;;21.40
8227;BMP180;4154;48.810;9.012;2023-06-14T10:35:16;96886.00;;;21.30
8227;BMP180;4154;48.810;9.012;2023-06-14T10:37:42;96880.00;;;21.20
8227;BMP180;4154;48.810;9.012;2023-06-14T10:40:30;96884.00;;;21.30
8227;BMP180;4154;48.810;9.012;2023-06-14T10:42:56;96880.00;;;21.30
8227;BMP180;4154;48.810;9.012;2023-06-14T10:45:22;96878.00;;;21.50
8227;BMP180;4154;48.810;9.012;2023-06-14T10:47:49;96894.00;;;21.70
8227;BMP180;4154;48.810;9.012;2023-06-14T10:50:22;96881.00;;;21.90
8227;BMP180;4154;48.810;9.012;2023-06-14T10:52:53;96886.00;;;21.80
8227;BMP180;4154;48.810;9.012;2023-06-14T10:55:19;96885.00;;;22.10
8227;BMP180;4154;48.810;9.012;2023-06-14T10:57:54;96888.00;;;22.10
8227;BMP180;4154;48.810;9.012;2023-06-14T11:00:27;96874.00;;;22.10
8227;BMP180;4154;48.810;9.012;2023-06-14T11:03:43;96885.00;;;22.30
8227;BMP180;4154;48.810;9.012;2023-06-14T11:06:14;96877.00;;;22.20
8227;BMP180;4154;48.810;9.012;2023-06-14T11:09:20;96878.00;;;22.30
8227;BMP180;4154;48.810;9.012;2023-06-14T11:11:53;96893.00;;;22.30
8227;BMP180;4154;48.810;9.012;2023-06-14T11:14:20;96880.00;;;22.20
8227;BMP180;4154;48.810;9.012;2023-06-14T11:16:50;96879.00;;;22.20
8227;BMP180;4154;48.810;9.012;2023-06-14T11:19:16;96885.00;;;22.20
8227;BMP180;4154;48.810;9.012;2023-06-14T11:21:47;96874.00;;;22.20
8227;BMP180;4154;48.810;9.012;2023-06-14T11:24:13;96884.00;;;22.40
8227;BMP180;4154;48.810;9.012;2023-06-14T11:26:40;96879.00;;;22.40
8227;BMP180;4154;48.810;9.012;2023-06-14T11:29:06;96875.00;;;22.60
8227;BMP180;4154;48.810;9.012;2023-06-14T11:31:32;96871.00;;;22.60
8227;BMP180;4154;48.810;9.012;2023-06-14T11:33:59;96888.00;;;22.70
8227;BMP180;4154;48.810;9.012;2023-06-14T11:36:30;96882.00;;;22.80
8227;BMP180;4154;48.810;9.012;2023-06-14T11:39:04;96884.00;;;23.00
8227;BMP180;4154;48.810;9.012;2023-06-14T11:41:43;96885.00;;;22.90
8227;BMP180;4154;48.810;9.012;2023-06-14T11:44:09;96884.00;;;22.80
8227;BMP180;4154;48.810;9.012;2023-06-14T11:46:36;96884.00;;;22.90
8227;BMP180;4154;48.810;9.012;2023-06-14T11:49:02;96882.00;;;22.90
8227;BMP180;4154;48.810;9.012;2023-06-14T11:51:32;96884.00;;;23.10
8227;BMP180;4154;48.810;9.012;2023-06-14T11:53:58;96884.00;;;23.00
8227;BMP180;4154;48.810;9.012;2023-06-14T11:56:24;96889.00;;;23.10
8227;BMP180;4154;48.810;9.012;2023-06-14T11:58:52;96888.00;;;23.00
8227;BMP180;4154;48.810;9.012;2023-06-14T12:01:22;96883.00;;;22.80
8227;BMP180;4154;48.810;9.012;2023-06-14T12:03:49;96878.00;;;22.70
8227;BMP180;4154;48.810;9.012;2023-06-14T12:06:16;96875.00;;;22.70
8227;BMP180;4154;48.810;9.012;2023-06-14T12:08:44;96878.00;;;22.70
8227;BMP180;4154;48.810;9.012;2023-06-14T12:11:12;96880.00;;;22.70
8227;BMP180;4154;48.810;9.012;2023-06-14T12:13:40;96885.00;;;22.80
8227;BMP180;4154;48.810;9.012;2023-06-14T12:16:11;96887.00;;;22.90
8227;BMP180;4154;48.810;9.012;2023-06-14T12:18:39;96877.00;;;23.10
8227;BMP180;4154;48.810;9.012;2023-06-14T12:21:08;96877.00;;;23.20
8227;BMP180;4154;48.810;9.012;2023-06-14T12:23:47;96873.00;;;23.20
8227;BMP180;4154;48.810;9.012;2023-06-14T12:26:18;96891.00;;;23.20
8227;BMP180;4154;48.810;9.012;2023-06-14T12:28:48;96888.00;;;23.30
8227;BMP180;4154;48.810;9.012;2023-06-14T12:31:15;96890.00;;;23.30
8227;BMP180;4154;48.810;9.012;2023-06-14T12:33:42;96876.00;;;23.30
8227;BMP180;4154;48.810;9.012;2023-06-14T12:36:09;96879.00;;;23.40
8227;BMP180;4154;48.810;9.012;2023-06-14T12:38:36;96870.00;;;23.50
8227;BMP180;4154;48.810;9.012;2023-06-14T12:41:03;96881.00;;;23.50
8227;BMP180;4154;48.810;9.012;2023-06-14T12:43:29;96884.00;;;23.60
8227;BMP180;4154;48.810;9.012;2023-06-14T12:45:55;96885.00;;;23.70
8227;BMP180;4154;48.810;9.012;2023-06-14T12:48:22;96877.00;;;23.80
8227;BMP180;4154;48.810;9.012;2023-06-14T12:50:48;96888.00;;;23.80
8227;BMP180;4154;48.810;9.012;2023-06-14T12:53:14;96880.00;;;23.80
8227;BMP180;4154;48.810;9.012;2023-06-14T12:55:40;96880.00;;;23.80
8227;BMP180;4154;48.810;9.012;2023-06-14T12:58:07;96889.00;;;23.90
8227;BMP180;4154;48.810;9.012;2023-06-14T13:00:33;96878.00;;;23.90
8227;BMP180;4154;48.810;9.012;2023-06-14T13:02:59;96877.00;;;23.80
8227;BMP180;4154;48.810;9.012;2023-06-14T13:05:25;96882.00;;;23.90
8227;BMP180;4154;48.810;9.012;2023-06-14T13:07:51;96886.00;;;24.10
8227;BMP180;4154;48.810;9.012;2023-06-14T13:10:18;96887.00;;;24.10
8227;BMP180;4154;48.810;9.012;2023-06-14T13:12:44;96881.00;;;24.00
8227;BMP180;4154;48.810;9.012;2023-06-14T13:15:10;96893.00;;;24.00
8227;BMP180;4154;48.810;9.012;2023-06-14T13:17:36;96884.00;;;23.90
8227;BMP180;4154;48.810;9.012;2023-06-14T13:20:07;96881.00;;;23.80
8227;BMP180;4154;48.810;9.012;2023-06-14T13:22:35;96892.00;;;23.70
8227;BMP180;4154;48.810;9.012;2023-06-14T13:25:01;96885.00;;;23.70
8227;BMP180;4154;48.810;9.012;2023-06-14T13:27:28;96888.00;;;23.80
8227;BMP180;4154;48.810;9.012;2023-06-14T13:29:54;96894.00;;;23.90
8227;BMP180;4154;48.810;9.012;2023-06-14T13:32:23;96887.00;;;23.90
8227;BMP180;4154;48.810;9.012;2023-06-14T13:34:50;96892.00;;;23.90
8227;BMP180;4154;48.810;9.012;2023-06-14T13:37:16;96890.00;;;23.90
8227;BMP180;4154;48.810;9.012;2023-06-14T13:39:42;96883.00;;;24.00
8227;BMP180;4154;48.810;9.012;2023-06-14T13:42:08;96883.00;;;24.10
8227;BMP180;4154;48.810;9.012;2023-06-14T13:44:34;96891.00;;;24.10
8227;BMP180;4154;48.810;9.012;2023-06-14T13:47:00;96886.00;;;24.20
8227;BMP180;4154;48.810;9.012;2023-06-14T13:49:26;96885.00;;;24.40
8227;BMP180;4154;48.810;9.012;2023-06-14T13:51:52;96887.00;;;24.50
8227;BMP180;4154;48.810;9.012;2023-06-14T13:54:20;96876.00;;;24.50
8227;BMP180;4154;48.810;9.012;2023-06-14T13:56:47;96885.00;;;24.30
8227;BMP180;4154;48.810;9.012;2023-06-14T13:59:13;96882.00;;;24.20
8227;BMP180;4154;48.810;9.012;2023-06-14T14:01:39;96871.00;;;24.00
8227;BMP180;4154;48.810;9.012;2023-06-14T14:04:05;96872.00;;;24.00
8227;BMP180;4154;48.810;9.012;2023-06-14T14:06:31;96879.00;;;23.90
8227;BMP180;4154;48.810;9.012;2023-06-14T14:08:58;96876.00;;;23.90
8227;BMP180;4154;48.810;9.012;2023-06-14T14:11:24;96879.00;;;24.00
8227;BMP180;4154;48.810;9.012;2023-06-14T14:13:50;96883.00;;;24.10
8227;BMP180;4154;48.810;9.012;2023-06-14T14:16:16;96871.00;;;24.20
8227;BMP180;4154;48.810;9.012;2023-06-14T14:18:42;96868.00;;;24.20
8227;BMP180;4154;48.810;9.012;2023-06-14T14:21:08;96871.00;;;24.30
8227;BMP180;4154;48.810;9.012;2023-06-14T14:23:35;96872.00;;;24.30
8227;BMP180;4154;48.810;9.012;2023-06-14T14:26:01;96877.00;;;24.30
8227;BMP180;4154;48.810;9.012;2023-06-14T14:28:30;96881.00;;;24.20
8227;BMP180;4154;48.810;9.012;2023-06-14T14:30:56;96876.00;;;24.30
8227;BMP180;4154;48.810;9.012;2023-06-14T14:33:22;96878.00;;;24.30
8227;BMP180;4154;48.810;9.012;2023-06-14T14:35:49;96881.00;;;24.30
8227;BMP180;4154;48.810;9.012;2023-06-14T14:38:15;96886.00;;;24.40
8227;BMP180;4154;48.810;9.012;2023-06-14T14:40:42;96891.00;;;24.40
8227;BMP180;4154;48.810;9.012;2023-06-14T14:43:09;96881.00;;;24.40
8227;BMP180;4154;48.810;9.012;2023-06-14T14:45:37;96887.00;;;24.60